Laona, Wisconsin
Current Conditions -  °F | °C
As of 12:54 PM on Thursday 23 Oct 2014 (Local Time) from KIMT Reporting Station
Light Rain Light Rain  
Wind Chill: 41°   Ceiling: 4700
Heat Index: 44°   Visibility: 5mi
Dew Point: 39°   Wind: 6mph
Humidity: 82%   Direction: 160°SSE
Pressure: 30.06"   Gusts: NA
Location:  45.56°N, 88.67°W
Report Text: KIMT 231754Z AUTO 16005KT 5SM -RA FEW034 BKN047 OVC075 07/04 A3006 RMK AO2 RAE1655B24 SLP189 P0000 60000 T00670039 10072 20028 58013
Loading
Personal Weather Stations






























Interactive Weather Map
Tropical Storm Tracking
New forecast layout! Learn more

10-Day Weather Forecast

Advertisements
Track Severe Weather on mobile